createdAt,value
2023-01-11T00:01:52.008Z,8.19
2023-01-11T00:04:19.499Z,8.18
2023-01-11T00:06:46.563Z,8.17
2023-01-11T00:09:13.197Z,8.17
2023-01-11T00:11:39.549Z,8.20
2023-01-11T00:14:06.082Z,8.27
2023-01-11T00:16:32.492Z,8.25
2023-01-11T00:18:58.937Z,8.26
2023-01-11T00:21:26.704Z,8.25
2023-01-11T00:23:53.109Z,8.31
2023-01-11T00:26:19.547Z,8.32
2023-01-11T00:28:48.842Z,8.36
2023-01-11T00:31:15.957Z,8.40
2023-01-11T00:33:42.404Z,8.39
2023-01-11T00:36:09.280Z,8.42
2023-01-11T00:38:46.555Z,8.42
2023-01-11T00:41:33.914Z,8.48
2023-01-11T00:44:19.131Z,8.56
2023-01-11T00:47:17.635Z,8.58
2023-01-11T00:49:44.659Z,8.62
2023-01-11T00:52:12.000Z,8.65
2023-01-11T00:54:39.655Z,8.64
2023-01-11T00:57:07.485Z,8.68
2023-01-11T00:59:39.494Z,8.66
2023-01-11T01:02:07.065Z,8.70
2023-01-11T01:04:33.519Z,8.73
2023-01-11T01:06:59.851Z,8.74
2023-01-11T01:09:26.685Z,8.78
2023-01-11T01:11:53.312Z,8.81
2023-01-11T01:14:25.914Z,8.83
2023-01-11T01:16:53.656Z,8.82
2023-01-11T01:19:21.294Z,8.84
2023-01-11T01:21:48.251Z,8.84
2023-01-11T01:24:14.734Z,8.87
2023-01-11T01:26:41.455Z,8.88
2023-01-11T01:29:07.895Z,8.90
2023-01-11T01:31:34.320Z,8.91
2023-01-11T01:34:00.751Z,8.96
2023-01-11T01:36:27.153Z,8.97
2023-01-11T01:38:53.505Z,8.99
2023-01-11T01:41:19.850Z,9.00
2023-01-11T01:43:55.822Z,9.06
2023-01-11T01:46:26.633Z,9.09
2023-01-11T01:49:07.665Z,9.06
2023-01-11T01:51:45.553Z,9.08
2023-01-11T01:54:20.148Z,9.11
2023-01-11T01:56:51.582Z,9.13
2023-01-11T01:59:20.479Z,9.20
2023-01-11T02:01:47.889Z,9.22
2023-01-11T02:04:24.561Z,9.25
2023-01-11T02:06:55.904Z,9.32
2023-01-11T02:09:31.602Z,9.35
2023-01-11T02:11:59.817Z,9.33
2023-01-11T02:14:29.398Z,9.42
2023-01-11T02:16:55.860Z,9.40
2023-01-11T02:19:59.925Z,9.39
2023-01-11T02:22:50.851Z,9.46
2023-01-11T02:25:38.383Z,9.47
2023-01-11T02:28:10.906Z,9.49
2023-01-11T02:30:44.149Z,9.54
2023-01-11T02:33:25.718Z,9.57
2023-01-11T02:36:10.533Z,9.55
2023-01-11T02:39:07.884Z,9.59
2023-01-11T02:42:03.455Z,9.56
2023-01-11T02:44:59.941Z,9.64
2023-01-11T02:47:30.725Z,9.64
2023-01-11T02:50:21.399Z,9.67
2023-01-11T02:53:00.715Z,9.71
2023-01-11T02:55:32.495Z,9.75
2023-01-11T02:58:02.977Z,9.79
2023-01-11T03:00:30.060Z,9.80
2023-01-11T03:03:07.401Z,9.81
2023-01-11T03:05:38.174Z,9.83
2023-01-11T03:08:13.627Z,9.85
2023-01-11T03:11:08.115Z,9.86
2023-01-11T03:13:46.741Z,9.86
2023-01-11T03:16:23.322Z,9.91
2023-01-11T03:19:16.067Z,9.88
2023-01-11T03:21:45.472Z,9.85
2023-01-11T03:24:17.797Z,9.77
2023-01-11T03:26:52.686Z,9.77
2023-01-11T03:29:25.122Z,9.70
2023-01-11T03:32:14.297Z,9.70
2023-01-11T03:34:47.349Z,9.66
2023-01-11T03:37:29.328Z,9.68
2023-01-11T03:40:04.277Z,9.72
2023-01-11T03:42:33.852Z,9.73
2023-01-11T03:45:02.897Z,9.70
2023-01-11T03:47:30.639Z,9.72
2023-01-11T03:50:06.113Z,9.76
2023-01-11T03:52:37.234Z,9.81
2023-01-11T03:55:08.056Z,9.86
2023-01-11T03:57:45.182Z,9.87
2023-01-11T04:00:11.826Z,9.85
2023-01-11T04:02:41.593Z,9.91
2023-01-11T04:05:10.789Z,9.85
2023-01-11T04:07:37.734Z,9.89
2023-01-11T04:10:05.149Z,9.93
2023-01-11T04:12:31.512Z,9.93
2023-01-11T04:14:57.967Z,9.97
2023-01-11T04:17:24.298Z,9.96
2023-01-11T04:19:50.637Z,9.95
2023-01-11T04:22:17.008Z,9.95
2023-01-11T04:24:43.369Z,9.89
2023-01-11T04:27:09.832Z,9.88
2023-01-11T04:29:36.307Z,9.84
2023-01-11T04:32:03.622Z,9.82
2023-01-11T04:34:30.007Z,9.81
2023-01-11T04:36:56.426Z,9.83
2023-01-11T04:39:22.906Z,9.83
2023-01-11T04:42:08.097Z,9.88
2023-01-11T04:44:34.501Z,9.83
2023-01-11T04:47:00.877Z,9.82
2023-01-11T04:49:27.325Z,9.82
2023-01-11T04:51:53.658Z,9.87
2023-01-11T04:54:20.082Z,9.86
2023-01-11T04:56:46.571Z,9.87
2023-01-11T04:59:13.738Z,9.92
2023-01-11T05:01:40.059Z,9.88
2023-01-11T05:04:06.610Z,9.88
2023-01-11T05:06:33.185Z,9.91
2023-01-11T05:08:59.603Z,9.90
2023-01-11T05:11:25.955Z,9.92
2023-01-11T05:13:52.266Z,9.93
2023-01-11T05:16:24.152Z,9.96
2023-01-11T05:18:56.544Z,9.98
2023-01-11T05:21:26.172Z,9.99
2023-01-11T05:23:53.633Z,9.99
2023-01-11T05:26:23.062Z,10.01
2023-01-11T05:28:50.649Z,10.01
2023-01-11T05:31:17.623Z,10.02
2023-01-11T05:33:44.252Z,10.03
2023-01-11T05:36:13.869Z,10.04
2023-01-11T05:38:40.360Z,10.04
2023-01-11T05:41:09.593Z,10.08
2023-01-11T05:43:55.697Z,10.10
2023-01-11T05:46:22.882Z,10.10
2023-01-11T05:48:49.603Z,10.15
2023-01-11T05:51:16.370Z,10.18
2023-01-11T05:53:43.405Z,10.15
2023-01-11T05:56:09.810Z,10.17
2023-01-11T05:58:36.349Z,10.21
2023-01-11T06:01:02.726Z,10.19
2023-01-11T06:03:30.119Z,10.24
2023-01-11T06:05:59.056Z,10.27
2023-01-11T06:08:26.042Z,10.23
2023-01-11T06:10:54.365Z,10.25
2023-01-11T06:13:27.818Z,10.31
2023-01-11T06:15:54.257Z,10.32
2023-01-11T06:18:21.134Z,10.31
2023-01-11T06:20:52.030Z,10.34
2023-01-11T06:23:18.559Z,10.38
2023-01-11T06:25:45.782Z,10.41
2023-01-11T06:28:12.613Z,10.44
2023-01-11T06:30:39.075Z,10.44
2023-01-11T06:33:08.113Z,10.42
2023-01-11T06:35:39.436Z,10.46
2023-01-11T06:38:11.685Z,10.52
2023-01-11T06:40:39.631Z,10.52
2023-01-11T06:43:06.671Z,10.54
2023-01-11T06:45:33.716Z,10.52
2023-01-11T06:48:00.314Z,10.57
2023-01-11T06:50:26.894Z,10.64
2023-01-11T06:52:55.025Z,10.64
2023-01-11T06:55:23.043Z,10.65
2023-01-11T06:57:49.497Z,10.67
2023-01-11T07:00:17.171Z,10.73
2023-01-11T07:02:44.418Z,10.73
2023-01-11T07:05:11.236Z,10.67
2023-01-11T07:07:42.338Z,10.62
2023-01-11T07:10:12.336Z,10.67
2023-01-11T07:12:38.797Z,10.68
2023-01-11T07:15:07.315Z,10.64
2023-01-11T07:17:34.032Z,10.66
2023-01-11T07:20:00.382Z,10.67
2023-01-11T07:22:27.207Z,10.67
2023-01-11T07:24:53.706Z,10.70
2023-01-11T07:27:20.356Z,10.74
2023-01-11T07:29:47.545Z,10.75
2023-01-11T07:32:14.088Z,10.80
2023-01-11T07:34:40.490Z,10.81
2023-01-11T07:37:09.469Z,10.82
2023-01-11T07:39:55.160Z,10.81
2023-01-11T07:42:40.212Z,10.85
2023-01-11T07:45:07.311Z,10.88
2023-01-11T07:47:33.740Z,11.00
2023-01-11T07:50:00.141Z,11.03
2023-01-11T07:52:26.534Z,11.06
2023-01-11T07:54:52.980Z,11.14
2023-01-11T07:57:19.413Z,11.14
2023-01-11T07:59:45.852Z,11.19
2023-01-11T08:02:12.219Z,11.19
2023-01-11T08:04:38.603Z,11.25
2023-01-11T08:07:05.100Z,11.25
2023-01-11T08:09:31.513Z,11.27
2023-01-11T08:12:16.544Z,11.21
2023-01-11T08:14:42.974Z,11.19
2023-01-11T08:17:12.736Z,11.18
2023-01-11T08:19:39.560Z,11.16
2023-01-11T08:22:06.322Z,11.16
2023-01-11T08:24:34.544Z,11.18
2023-01-11T08:27:02.584Z,11.14
2023-01-11T08:29:29.452Z,11.10
2023-01-11T08:31:56.895Z,11.10
2023-01-11T08:34:23.425Z,11.11
2023-01-11T08:36:49.799Z,11.13
2023-01-11T08:39:16.356Z,11.15
2023-01-11T08:41:42.808Z,11.17
2023-01-11T08:44:11.707Z,11.18
2023-01-11T08:46:38.282Z,11.19
2023-01-11T08:49:11.236Z,11.18
2023-01-11T08:51:41.918Z,11.15
2023-01-11T08:54:14.147Z,11.19
2023-01-11T08:56:40.523Z,11.18
2023-01-11T08:59:06.956Z,11.21
2023-01-11T09:01:36.403Z,11.20
2023-01-11T09:04:09.390Z,11.26
2023-01-11T09:06:42.094Z,11.32
2023-01-11T09:09:08.425Z,11.29
2023-01-11T09:11:53.638Z,11.34
2023-01-11T09:14:21.140Z,11.37
2023-01-11T09:16:48.783Z,11.38
2023-01-11T09:19:15.315Z,11.36
2023-01-11T09:21:41.812Z,11.36
2023-01-11T09:24:08.606Z,11.37
2023-01-11T09:26:35.992Z,11.36
2023-01-11T09:29:02.523Z,11.37
2023-01-11T09:31:29.010Z,11.40
2023-01-11T09:33:55.593Z,11.42
2023-01-11T09:36:23.591Z,11.42
2023-01-11T09:38:52.682Z,11.43
2023-01-11T09:42:00.843Z,11.49
2023-01-11T09:44:29.727Z,11.48
2023-01-11T09:47:28.695Z,11.48
2023-01-11T09:50:00.520Z,11.43
2023-01-11T09:52:38.273Z,11.43
2023-01-11T09:55:05.399Z,11.42
2023-01-11T09:57:40.232Z,11.40
2023-01-11T10:00:40.317Z,11.36
2023-01-11T10:03:37.704Z,11.35
2023-01-11T10:06:18.421Z,11.32
2023-01-11T10:18:23.664Z,11.27
2023-01-11T10:18:34.073Z,11.26
2023-01-11T10:21:09.484Z,11.22
2023-01-11T10:23:50.430Z,11.21
2023-01-11T10:26:40.096Z,11.23
2023-01-11T10:29:16.723Z,11.16
2023-01-11T10:32:10.201Z,11.19
2023-01-11T10:35:00.331Z,11.16
2023-01-11T10:37:50.414Z,11.18
2023-01-11T10:40:43.210Z,11.18
2023-01-11T10:43:16.970Z,11.15
2023-01-11T10:45:56.589Z,11.19
2023-01-11T10:48:27.944Z,11.18
2023-01-11T10:51:09.649Z,11.16
2023-01-11T10:53:40.979Z,11.14
2023-01-11T10:56:19.639Z,11.21
2023-01-11T10:59:08.201Z,11.20
2023-01-11T11:01:56.684Z,11.20
2023-01-11T11:04:51.174Z,11.27
2023-01-11T11:07:45.761Z,11.23
2023-01-11T11:10:19.067Z,11.20
2023-01-11T11:12:52.035Z,11.11
2023-01-11T11:15:26.288Z,11.11
2023-01-11T11:17:54.406Z,11.04
2023-01-11T11:20:28.582Z,11.01
2023-01-11T11:22:58.914Z,11.01
2023-01-11T11:25:31.162Z,11.02
2023-01-11T11:28:07.441Z,11.01
2023-01-11T11:30:41.432Z,10.99
2023-01-11T11:33:17.377Z,11.02
2023-01-11T11:35:56.564Z,11.05
2023-01-11T11:38:25.690Z,11.00
2023-01-11T11:41:04.188Z,10.98
2023-01-11T11:43:32.756Z,10.93
2023-01-11T11:46:23.844Z,10.91
2023-01-11T11:49:22.870Z,10.87
2023-01-11T11:51:51.463Z,10.86
2023-01-11T11:54:29.410Z,10.90
2023-01-11T11:56:58.313Z,10.84
2023-01-11T11:59:28.211Z,10.82
2023-01-11T12:02:03.534Z,10.85
2023-01-11T12:04:50.913Z,10.82
2023-01-11T12:07:24.098Z,10.80
2023-01-11T12:09:58.592Z,10.82
2023-01-11T12:12:28.629Z,10.82
2023-01-11T12:15:19.724Z,10.80
2023-01-11T12:17:46.943Z,10.81
2023-01-11T12:20:22.528Z,10.83
2023-01-11T12:22:50.586Z,10.84
2023-01-11T12:25:16.908Z,10.85
2023-01-11T12:28:04.318Z,10.89
2023-01-11T12:30:49.039Z,10.94
2023-01-11T12:33:30.597Z,11.03
2023-01-11T12:36:08.569Z,11.01
2023-01-11T12:38:47.212Z,11.06
2023-01-11T12:41:50.142Z,11.05
2023-01-11T12:44:38.540Z,11.08
2023-01-11T12:47:44.185Z,11.12
2023-01-11T12:50:20.722Z,11.07
2023-01-11T12:53:21.542Z,11.13
2023-01-11T12:56:20.353Z,11.19
2023-01-11T12:59:01.480Z,11.13
2023-01-11T13:01:42.500Z,11.21
2023-01-11T13:04:26.983Z,11.33
2023-01-11T13:07:18.499Z,11.44
2023-01-11T13:10:05.301Z,11.61
2023-01-11T13:12:49.002Z,11.78
2023-01-11T13:15:34.616Z,12.02
2023-01-11T13:18:13.445Z,12.06
2023-01-11T13:21:00.801Z,12.17
2023-01-11T13:23:50.104Z,12.15
2023-01-11T13:26:23.252Z,12.20
2023-01-11T13:29:14.552Z,12.24
2023-01-11T13:31:44.124Z,12.28
2023-01-11T13:34:17.183Z,12.16
2023-01-11T13:36:51.223Z,11.98
2023-01-11T13:39:37.181Z,11.96
2023-01-11T13:42:12.081Z,12.00
2023-01-11T13:44:46.478Z,12.03
2023-01-11T13:47:38.139Z,12.18
2023-01-11T13:50:17.943Z,12.17
2023-01-11T13:52:44.351Z,12.06
2023-01-11T13:55:26.056Z,11.98
2023-01-11T13:58:03.574Z,11.87
2023-01-11T14:00:45.784Z,11.74
2023-01-11T14:03:34.364Z,11.68
2023-01-11T14:06:41.997Z,11.78
2023-01-11T14:09:47.116Z,11.87
2023-01-11T14:12:33.009Z,12.10
2023-01-11T14:15:05.192Z,12.34
2023-01-11T14:17:50.552Z,12.49
2023-01-11T14:20:32.342Z,12.75
2023-01-11T14:23:17.773Z,13.23
2023-01-11T14:26:12.544Z,13.63
2023-01-11T14:29:06.740Z,13.65
2023-01-11T14:31:51.493Z,13.46
2023-01-11T14:34:38.094Z,13.44
2023-01-11T14:37:16.665Z,13.64
2023-01-11T14:39:55.085Z,13.44
2023-01-11T14:42:49.813Z,13.18
2023-01-11T14:45:27.099Z,13.08
2023-01-11T14:48:12.469Z,12.92
2023-01-11T14:50:59.506Z,12.74
2023-01-11T14:53:31.250Z,12.64
2023-01-11T14:55:57.638Z,12.59
2023-01-11T14:58:29.679Z,12.51
2023-01-11T15:00:56.133Z,12.48
2023-01-11T15:03:22.449Z,12.36
2023-01-11T15:05:58.135Z,12.24
2023-01-11T15:08:41.093Z,12.09
2023-01-11T15:11:33.822Z,12.00
2023-01-11T15:14:23.212Z,11.96
2023-01-11T15:17:11.957Z,11.89
2023-01-11T15:19:41.754Z,11.81
2023-01-11T15:22:24.500Z,11.80
2023-01-11T15:25:00.097Z,11.74
2023-01-11T15:27:33.249Z,11.76
2023-01-11T15:30:00.235Z,11.64
2023-01-11T15:32:34.858Z,11.57
2023-01-11T15:35:24.485Z,11.51
2023-01-11T15:38:00.929Z,11.43
2023-01-11T15:40:31.437Z,11.38
2023-01-11T15:43:40.071Z,11.35
2023-01-11T15:46:31.548Z,11.17
2023-01-11T15:49:16.441Z,11.19
2023-01-11T15:51:58.510Z,11.14
2023-01-11T15:54:31.100Z,11.14
2023-01-11T15:57:23.798Z,11.13
2023-01-11T16:00:21.210Z,11.18
2023-01-11T16:03:31.736Z,11.14
2023-01-11T16:06:22.720Z,11.03
2023-01-11T16:09:11.902Z,11.02
2023-01-11T16:11:54.249Z,10.96
2023-01-11T16:14:39.072Z,10.93
2023-01-11T16:17:13.204Z,10.97
2023-01-11T16:19:44.267Z,10.90
2023-01-11T16:22:19.595Z,10.93
2023-01-11T16:24:51.050Z,10.91
2023-01-11T16:27:26.180Z,10.90
2023-01-11T16:29:53.739Z,11.00
2023-01-11T16:32:27.033Z,11.11
2023-01-11T16:34:55.715Z,11.15
2023-01-11T16:37:31.248Z,11.11
2023-01-11T16:40:22.680Z,11.06
2023-01-11T16:42:55.487Z,11.00
2023-01-11T16:45:24.471Z,10.89
2023-01-11T16:48:07.649Z,10.86
2023-01-11T16:50:35.058Z,10.83
2023-01-11T16:53:07.323Z,10.84
2023-01-11T16:55:37.948Z,10.78
2023-01-11T16:58:17.151Z,10.70
2023-01-11T17:00:56.898Z,10.65
2023-01-11T17:03:25.304Z,10.66
2023-01-11T17:05:57.594Z,10.71
2023-01-11T17:08:35.650Z,10.66
2023-01-11T17:11:07.851Z,10.59
2023-01-11T17:13:53.561Z,10.60
2023-01-11T17:16:35.242Z,10.62
2023-01-11T17:19:09.145Z,10.68
2023-01-11T17:21:36.083Z,10.65
2023-01-11T17:24:05.454Z,10.57
2023-01-11T17:26:37.910Z,10.45
2023-01-11T17:29:04.957Z,10.45
2023-01-11T17:31:35.985Z,10.45
2023-01-11T17:34:08.554Z,10.38
2023-01-11T17:36:36.049Z,10.31
2023-01-11T17:39:04.477Z,10.30
2023-01-11T17:41:49.948Z,10.25
2023-01-11T17:44:38.449Z,10.26
2023-01-11T17:47:08.328Z,10.24
2023-01-11T17:49:39.461Z,10.23
2023-01-11T17:52:20.707Z,10.13
2023-01-11T17:54:47.559Z,10.14
2023-01-11T17:57:14.248Z,10.11
2023-01-11T17:59:40.757Z,10.15
2023-01-11T18:02:14.206Z,10.09
2023-01-11T18:04:41.582Z,10.05
2023-01-11T18:07:15.549Z,10.04
2023-01-11T18:09:46.837Z,10.00
2023-01-11T18:12:44.759Z,10.00
2023-01-11T18:15:25.133Z,10.01
2023-01-11T18:17:56.802Z,10.03
2023-01-11T18:20:29.305Z,9.99
2023-01-11T18:23:05.054Z,9.87
2023-01-11T18:25:34.946Z,9.85
2023-01-11T18:28:27.123Z,9.85
2023-01-11T18:30:56.517Z,9.84
2023-01-11T18:33:26.106Z,9.86
2023-01-11T18:35:58.001Z,9.86
2023-01-11T18:38:30.781Z,9.79
2023-01-11T18:40:59.602Z,9.77
2023-01-11T18:43:28.825Z,9.79
2023-01-11T18:45:55.949Z,9.79
2023-01-11T18:48:23.021Z,9.73
2023-01-11T18:50:52.180Z,9.70
2023-01-11T18:53:18.782Z,9.71
2023-01-11T18:55:45.828Z,9.67
2023-01-11T18:58:12.548Z,9.61
2023-01-11T19:00:40.956Z,9.65
2023-01-11T19:03:10.062Z,9.65
2023-01-11T19:05:36.758Z,9.56
2023-01-11T19:08:03.160Z,9.52
2023-01-11T19:10:29.593Z,9.58
2023-01-11T19:12:57.274Z,9.56
2023-01-11T19:15:23.754Z,9.56
2023-01-11T19:17:50.095Z,9.48
2023-01-11T19:20:16.497Z,9.44
2023-01-11T19:22:42.985Z,9.40
2023-01-11T19:25:11.481Z,9.36
2023-01-11T19:27:38.116Z,9.39
2023-01-11T19:30:05.808Z,9.41
2023-01-11T19:32:32.263Z,9.39
2023-01-11T19:34:59.418Z,9.37
2023-01-11T19:37:27.272Z,9.32
2023-01-11T19:39:53.798Z,9.23
2023-01-11T19:42:21.005Z,9.23
2023-01-11T19:44:47.563Z,9.24
2023-01-11T19:47:16.570Z,9.30
2023-01-11T19:49:43.702Z,9.27
2023-01-11T19:52:18.936Z,9.23
2023-01-11T19:54:46.406Z,9.19
2023-01-11T19:57:15.306Z,9.23
2023-01-11T19:59:42.431Z,9.19
2023-01-11T20:02:11.807Z,9.28
2023-01-11T20:04:38.873Z,9.28
2023-01-11T20:07:06.421Z,9.26
2023-01-11T20:09:32.795Z,9.29
2023-01-11T20:11:59.203Z,9.36
2023-01-11T20:14:25.670Z,9.32
2023-01-11T20:16:52.126Z,9.32
2023-01-11T20:19:18.546Z,9.32
2023-01-11T20:21:45.102Z,9.32
2023-01-11T20:24:13.467Z,9.31
2023-01-11T20:26:40.992Z,9.28
2023-01-11T20:29:07.773Z,9.21
2023-01-11T20:31:35.380Z,9.16
2023-01-11T20:34:11.063Z,9.17
2023-01-11T20:36:37.609Z,9.10
2023-01-11T20:39:04.260Z,9.15
2023-01-11T20:41:49.645Z,9.11
2023-01-11T20:44:29.591Z,9.13
2023-01-11T20:46:56.398Z,9.11
2023-01-11T20:49:24.684Z,9.16
2023-01-11T20:51:51.058Z,9.16
2023-01-11T20:54:17.547Z,9.20
2023-01-11T20:56:46.522Z,9.22
2023-01-11T20:59:16.357Z,9.25
2023-01-11T21:01:43.045Z,9.26
2023-01-11T21:04:10.729Z,9.30
2023-01-11T21:06:40.679Z,9.24
2023-01-11T21:09:08.462Z,9.31
2023-01-11T21:11:35.551Z,9.30
2023-01-11T21:14:04.056Z,9.31
2023-01-11T21:16:31.526Z,9.31
2023-01-11T21:19:01.672Z,9.36
2023-01-11T21:21:31.196Z,9.40
2023-01-11T21:24:00.437Z,9.37
2023-01-11T21:26:27.965Z,9.42
2023-01-11T21:29:00.635Z,9.46
2023-01-11T21:31:30.911Z,9.47
2023-01-11T21:33:58.609Z,9.49
2023-01-11T21:36:26.366Z,9.51
2023-01-11T21:38:54.480Z,9.60
2023-01-11T21:41:48.255Z,9.57
2023-01-11T21:44:16.004Z,9.56
2023-01-11T21:46:43.476Z,9.50
2023-01-11T21:49:11.331Z,9.50
2023-01-11T21:51:38.587Z,9.51
2023-01-11T21:54:07.113Z,9.53
2023-01-11T21:56:33.609Z,9.59
2023-01-11T21:59:00.204Z,9.62
2023-01-11T22:01:27.491Z,9.71
2023-01-11T22:03:54.053Z,9.77
2023-01-11T22:06:20.619Z,9.76
2023-01-11T22:08:47.265Z,9.81
2023-01-11T22:11:16.003Z,9.84
2023-01-11T22:13:43.120Z,9.86
2023-01-11T22:16:15.186Z,9.89
2023-01-11T22:18:42.464Z,9.85
2023-01-11T22:21:10.314Z,9.88
2023-01-11T22:23:36.772Z,9.80
2023-01-11T22:26:08.589Z,9.83
2023-01-11T22:28:53.592Z,9.89
2023-01-11T22:31:20.814Z,9.88
2023-01-11T22:33:47.727Z,9.85
2023-01-11T22:36:14.771Z,9.87
2023-01-11T22:38:41.614Z,9.90
2023-01-11T22:41:08.726Z,9.96
2023-01-11T22:43:35.309Z,9.98
2023-01-11T22:46:02.379Z,9.98
2023-01-11T22:48:28.982Z,10.01
2023-01-11T22:50:55.453Z,10.07
2023-01-11T22:53:21.808Z,10.11
2023-01-11T22:55:48.159Z,10.13
2023-01-11T22:58:14.737Z,10.19
2023-01-11T23:00:41.223Z,10.20
2023-01-11T23:03:07.640Z,10.24
2023-01-11T23:05:34.071Z,10.20
2023-01-11T23:08:00.583Z,10.19
2023-01-11T23:10:27.184Z,10.17
2023-01-11T23:13:12.343Z,10.18
2023-01-11T23:15:39.523Z,10.20
2023-01-11T23:18:06.162Z,10.18
2023-01-11T23:20:35.502Z,10.19
2023-01-11T23:23:02.015Z,10.22
2023-01-11T23:25:28.377Z,10.21
2023-01-11T23:27:55.579Z,10.25
2023-01-11T23:30:22.050Z,10.25
2023-01-11T23:32:48.442Z,10.32
2023-01-11T23:35:14.975Z,10.28
2023-01-11T23:37:41.417Z,10.26
2023-01-11T23:40:08.756Z,10.31
2023-01-11T23:42:36.571Z,10.30
2023-01-11T23:45:03.062Z,10.26
2023-01-11T23:47:31.425Z,10.23
2023-01-11T23:50:02.655Z,10.15
2023-01-11T23:52:31.302Z,10.13
2023-01-11T23:54:57.666Z,10.03
2023-01-11T23:57:25.677Z,10.05
2023-01-11T23:59:52.495Z,10.02
